sensor_id;sensor_type;location;lat;lon;timestamp;P1;durP1;ratioP1;P2;durP2;ratioP2
9374;SDS011;4727;51.202;6.344;2022-12-18T00:00:07;33.07;;;20.80;;
9374;SDS011;4727;51.202;6.344;2022-12-18T00:02:33;26.80;;;19.63;;
9374;SDS011;4727;51.202;6.344;2022-12-18T00:04:59;29.80;;;19.20;;
9374;SDS011;4727;51.202;6.344;2022-12-18T00:07:25;27.50;;;18.90;;
9374;SDS011;4727;51.202;6.344;2022-12-18T00:09:51;27.93;;;19.93;;
9374;SDS011;4727;51.202;6.344;2022-12-18T00:12:17;24.97;;;18.50;;
9374;SDS011;4727;51.202;6.344;2022-12-18T00:14:43;29.10;;;20.40;;
9374;SDS011;4727;51.202;6.344;2022-12-18T00:17:09;31.27;;;19.03;;
9374;SDS011;4727;51.202;6.344;2022-12-18T00:19:35;30.77;;;20.97;;
9374;SDS011;4727;51.202;6.344;2022-12-18T00:22:01;29.87;;;19.27;;
9374;SDS011;4727;51.202;6.344;2022-12-18T00:24:27;27.67;;;18.77;;
9374;SDS011;4727;51.202;6.344;2022-12-18T00:26:53;26.43;;;18.00;;
9374;SDS011;4727;51.202;6.344;2022-12-18T00:29:19;26.97;;;19.43;;
9374;SDS011;4727;51.202;6.344;2022-12-18T00:31:45;26.47;;;19.10;;
9374;SDS011;4727;51.202;6.344;2022-12-18T00:34:12;28.17;;;19.53;;
9374;SDS011;4727;51.202;6.344;2022-12-18T00:36:38;29.00;;;19.10;;
9374;SDS011;4727;51.202;6.344;2022-12-18T00:39:04;27.93;;;18.37;;
9374;SDS011;4727;51.202;6.344;2022-12-18T00:41:30;26.63;;;19.03;;
9374;SDS011;4727;51.202;6.344;2022-12-18T00:44:16;27.53;;;17.03;;
9374;SDS011;4727;51.202;6.344;2022-12-18T00:46:42;24.70;;;17.27;;
9374;SDS011;4727;51.202;6.344;2022-12-18T00:49:08;25.70;;;17.97;;
9374;SDS011;4727;51.202;6.344;2022-12-18T00:51:37;27.33;;;17.60;;
9374;SDS011;4727;51.202;6.344;2022-12-18T00:54:03;22.53;;;18.10;;
9374;SDS011;4727;51.202;6.344;2022-12-18T00:56:30;26.73;;;17.80;;
9374;SDS011;4727;51.202;6.344;2022-12-18T00:58:56;25.00;;;17.93;;
9374;SDS011;4727;51.202;6.344;2022-12-18T01:01:22;26.03;;;17.60;;
9374;SDS011;4727;51.202;6.344;2022-12-18T01:03:48;26.37;;;17.30;;
9374;SDS011;4727;51.202;6.344;2022-12-18T01:06:14;24.67;;;16.53;;
9374;SDS011;4727;51.202;6.344;2022-12-18T01:08:41;24.50;;;17.00;;
9374;SDS011;4727;51.202;6.344;2022-12-18T01:11:14;26.77;;;17.47;;
9374;SDS011;4727;51.202;6.344;2022-12-18T01:13:41;23.33;;;15.93;;
9374;SDS011;4727;51.202;6.344;2022-12-18T01:16:07;23.70;;;16.20;;
9374;SDS011;4727;51.202;6.344;2022-12-18T01:18:34;24.80;;;16.20;;
9374;SDS011;4727;51.202;6.344;2022-12-18T01:21:00;23.33;;;15.77;;
9374;SDS011;4727;51.202;6.344;2022-12-18T01:23:26;23.93;;;16.57;;
9374;SDS011;4727;51.202;6.344;2022-12-18T01:25:52;25.00;;;16.17;;
9374;SDS011;4727;51.202;6.344;2022-12-18T01:28:18;26.47;;;17.53;;
9374;SDS011;4727;51.202;6.344;2022-12-18T01:30:44;25.17;;;17.27;;
9374;SDS011;4727;51.202;6.344;2022-12-18T01:33:10;23.40;;;17.00;;
9374;SDS011;4727;51.202;6.344;2022-12-18T01:35:42;23.40;;;15.60;;
9374;SDS011;4727;51.202;6.344;2022-12-18T01:38:08;28.27;;;16.00;;
9374;SDS011;4727;51.202;6.344;2022-12-18T01:40:34;25.80;;;16.20;;
9374;SDS011;4727;51.202;6.344;2022-12-18T01:43:00;24.13;;;17.67;;
9374;SDS011;4727;51.202;6.344;2022-12-18T01:45:30;21.20;;;15.03;;
9374;SDS011;4727;51.202;6.344;2022-12-18T01:48:00;20.10;;;14.70;;
9374;SDS011;4727;51.202;6.344;2022-12-18T01:52:54;21.50;;;15.03;;
9374;SDS011;4727;51.202;6.344;2022-12-18T01:55:22;23.77;;;16.23;;
9374;SDS011;4727;51.202;6.344;2022-12-18T01:57:49;22.50;;;16.93;;
9374;SDS011;4727;51.202;6.344;2022-12-18T02:00:18;24.60;;;16.27;;
9374;SDS011;4727;51.202;6.344;2022-12-18T02:02:45;21.90;;;15.33;;
9374;SDS011;4727;51.202;6.344;2022-12-18T02:05:12;24.13;;;17.20;;
9374;SDS011;4727;51.202;6.344;2022-12-18T02:10:15;22.23;;;15.40;;
9374;SDS011;4727;51.202;6.344;2022-12-18T02:15:11;24.27;;;16.20;;
9374;SDS011;4727;51.202;6.344;2022-12-18T02:17:50;21.53;;;15.27;;
9374;SDS011;4727;51.202;6.344;2022-12-18T02:20:20;21.97;;;15.33;;
9374;SDS011;4727;51.202;6.344;2022-12-18T02:23:10;23.07;;;15.53;;
9374;SDS011;4727;51.202;6.344;2022-12-18T02:28:23;22.13;;;15.90;;
9374;SDS011;4727;51.202;6.344;2022-12-18T02:30:51;22.97;;;16.47;;
9374;SDS011;4727;51.202;6.344;2022-12-18T02:33:19;26.13;;;17.03;;
9374;SDS011;4727;51.202;6.344;2022-12-18T02:35:49;26.00;;;15.97;;
9374;SDS011;4727;51.202;6.344;2022-12-18T02:38:16;24.17;;;16.23;;
9374;SDS011;4727;51.202;6.344;2022-12-18T02:40:42;27.83;;;17.00;;
9374;SDS011;4727;51.202;6.344;2022-12-18T02:43:10;23.87;;;15.93;;
9374;SDS011;4727;51.202;6.344;2022-12-18T02:45:45;23.73;;;16.13;;
9374;SDS011;4727;51.202;6.344;2022-12-18T02:48:11;22.20;;;15.73;;
9374;SDS011;4727;51.202;6.344;2022-12-18T02:50:38;22.97;;;16.07;;
9374;SDS011;4727;51.202;6.344;2022-12-18T02:58:19;22.50;;;16.03;;
9374;SDS011;4727;51.202;6.344;2022-12-18T03:05:50;23.63;;;16.10;;
9374;SDS011;4727;51.202;6.344;2022-12-18T03:08:21;22.20;;;15.90;;
9374;SDS011;4727;51.202;6.344;2022-12-18T03:10:54;23.67;;;16.53;;
9374;SDS011;4727;51.202;6.344;2022-12-18T03:13:26;23.27;;;16.63;;
9374;SDS011;4727;51.202;6.344;2022-12-18T03:15:53;21.90;;;16.00;;
9374;SDS011;4727;51.202;6.344;2022-12-18T03:20:56;24.17;;;16.60;;
9374;SDS011;4727;51.202;6.344;2022-12-18T03:23:24;25.83;;;17.27;;
9374;SDS011;4727;51.202;6.344;2022-12-18T03:25:52;23.60;;;17.03;;
9374;SDS011;4727;51.202;6.344;2022-12-18T03:28:20;24.37;;;15.53;;
9374;SDS011;4727;51.202;6.344;2022-12-18T03:30:47;25.07;;;16.73;;
9374;SDS011;4727;51.202;6.344;2022-12-18T03:33:16;23.00;;;16.90;;
9374;SDS011;4727;51.202;6.344;2022-12-18T03:35:44;22.97;;;16.00;;
9374;SDS011;4727;51.202;6.344;2022-12-18T03:38:10;24.57;;;16.67;;
9374;SDS011;4727;51.202;6.344;2022-12-18T03:40:44;24.90;;;16.73;;
9374;SDS011;4727;51.202;6.344;2022-12-18T03:43:16;22.33;;;16.27;;
9374;SDS011;4727;51.202;6.344;2022-12-18T03:45:48;23.37;;;16.37;;
9374;SDS011;4727;51.202;6.344;2022-12-18T03:55:44;23.73;;;15.90;;
9374;SDS011;4727;51.202;6.344;2022-12-18T03:58:11;23.03;;;16.83;;
9374;SDS011;4727;51.202;6.344;2022-12-18T04:00:38;25.07;;;16.77;;
9374;SDS011;4727;51.202;6.344;2022-12-18T04:03:04;23.23;;;16.73;;
9374;SDS011;4727;51.202;6.344;2022-12-18T04:05:31;24.17;;;17.03;;
9374;SDS011;4727;51.202;6.344;2022-12-18T04:07:59;22.30;;;16.10;;
9374;SDS011;4727;51.202;6.344;2022-12-18T04:10:26;23.37;;;17.03;;
9374;SDS011;4727;51.202;6.344;2022-12-18T04:12:55;27.10;;;17.50;;
9374;SDS011;4727;51.202;6.344;2022-12-18T04:15:21;27.30;;;17.70;;
9374;SDS011;4727;51.202;6.344;2022-12-18T04:17:47;26.20;;;16.90;;
9374;SDS011;4727;51.202;6.344;2022-12-18T04:20:14;27.70;;;17.60;;
9374;SDS011;4727;51.202;6.344;2022-12-18T04:22:41;26.87;;;18.27;;
9374;SDS011;4727;51.202;6.344;2022-12-18T04:25:07;23.10;;;15.87;;
9374;SDS011;4727;51.202;6.344;2022-12-18T04:27:36;22.70;;;16.73;;
9374;SDS011;4727;51.202;6.344;2022-12-18T04:30:02;25.67;;;17.27;;
9374;SDS011;4727;51.202;6.344;2022-12-18T04:32:28;23.40;;;17.07;;
9374;SDS011;4727;51.202;6.344;2022-12-18T04:34:54;23.93;;;17.07;;
9374;SDS011;4727;51.202;6.344;2022-12-18T04:37:20;25.00;;;16.13;;
9374;SDS011;4727;51.202;6.344;2022-12-18T04:39:46;26.67;;;17.83;;
9374;SDS011;4727;51.202;6.344;2022-12-18T04:42:12;21.90;;;16.00;;
9374;SDS011;4727;51.202;6.344;2022-12-18T04:44:38;24.30;;;15.87;;
9374;SDS011;4727;51.202;6.344;2022-12-18T04:47:04;24.47;;;17.10;;
9374;SDS011;4727;51.202;6.344;2022-12-18T04:49:30;24.97;;;17.10;;
9374;SDS011;4727;51.202;6.344;2022-12-18T04:51:56;23.70;;;16.03;;
9374;SDS011;4727;51.202;6.344;2022-12-18T04:54:22;22.10;;;16.37;;
9374;SDS011;4727;51.202;6.344;2022-12-18T04:56:48;24.83;;;17.13;;
9374;SDS011;4727;51.202;6.344;2022-12-18T04:59:14;26.63;;;16.13;;
9374;SDS011;4727;51.202;6.344;2022-12-18T05:01:40;22.93;;;15.87;;
9374;SDS011;4727;51.202;6.344;2022-12-18T05:04:06;26.00;;;16.43;;
9374;SDS011;4727;51.202;6.344;2022-12-18T05:06:32;25.53;;;17.10;;
9374;SDS011;4727;51.202;6.344;2022-12-18T05:08:58;22.93;;;16.50;;
9374;SDS011;4727;51.202;6.344;2022-12-18T05:11:24;22.47;;;16.90;;
9374;SDS011;4727;51.202;6.344;2022-12-18T05:13:50;22.03;;;16.10;;
9374;SDS011;4727;51.202;6.344;2022-12-18T05:16:16;23.83;;;16.20;;
9374;SDS011;4727;51.202;6.344;2022-12-18T05:18:42;25.57;;;17.20;;
9374;SDS011;4727;51.202;6.344;2022-12-18T05:21:08;22.67;;;16.37;;
9374;SDS011;4727;51.202;6.344;2022-12-18T05:23:34;20.63;;;15.20;;
9374;SDS011;4727;51.202;6.344;2022-12-18T05:26:01;21.93;;;16.23;;
9374;SDS011;4727;51.202;6.344;2022-12-18T05:28:28;23.07;;;15.63;;
9374;SDS011;4727;51.202;6.344;2022-12-18T05:30:55;23.73;;;16.77;;
9374;SDS011;4727;51.202;6.344;2022-12-18T05:33:22;24.30;;;16.27;;
9374;SDS011;4727;51.202;6.344;2022-12-18T05:35:52;21.97;;;15.97;;
9374;SDS011;4727;51.202;6.344;2022-12-18T05:38:19;22.97;;;16.17;;
9374;SDS011;4727;51.202;6.344;2022-12-18T05:40:45;22.37;;;15.77;;
9374;SDS011;4727;51.202;6.344;2022-12-18T05:43:11;23.93;;;15.93;;
9374;SDS011;4727;51.202;6.344;2022-12-18T05:45:37;22.23;;;16.53;;
9374;SDS011;4727;51.202;6.344;2022-12-18T05:48:04;23.57;;;16.67;;
9374;SDS011;4727;51.202;6.344;2022-12-18T05:50:30;23.37;;;15.73;;
9374;SDS011;4727;51.202;6.344;2022-12-18T05:52:56;23.47;;;16.17;;
9374;SDS011;4727;51.202;6.344;2022-12-18T05:55:22;24.53;;;15.87;;
9374;SDS011;4727;51.202;6.344;2022-12-18T05:57:48;24.27;;;16.40;;
9374;SDS011;4727;51.202;6.344;2022-12-18T06:00:14;22.10;;;15.67;;
9374;SDS011;4727;51.202;6.344;2022-12-18T06:02:40;21.10;;;14.17;;
9374;SDS011;4727;51.202;6.344;2022-12-18T06:05:06;21.20;;;15.07;;
9374;SDS011;4727;51.202;6.344;2022-12-18T06:07:32;25.70;;;15.40;;
9374;SDS011;4727;51.202;6.344;2022-12-18T06:09:58;25.47;;;15.90;;
9374;SDS011;4727;51.202;6.344;2022-12-18T06:12:24;22.00;;;15.20;;
9374;SDS011;4727;51.202;6.344;2022-12-18T06:14:51;25.23;;;17.40;;
9374;SDS011;4727;51.202;6.344;2022-12-18T06:17:16;24.03;;;16.33;;
9374;SDS011;4727;51.202;6.344;2022-12-18T06:19:43;25.50;;;17.00;;
9374;SDS011;4727;51.202;6.344;2022-12-18T06:22:09;22.60;;;16.53;;
9374;SDS011;4727;51.202;6.344;2022-12-18T06:24:35;25.27;;;17.13;;
9374;SDS011;4727;51.202;6.344;2022-12-18T06:27:01;26.80;;;16.77;;
9374;SDS011;4727;51.202;6.344;2022-12-18T06:29:27;21.87;;;16.10;;
9374;SDS011;4727;51.202;6.344;2022-12-18T06:31:53;23.83;;;17.40;;
9374;SDS011;4727;51.202;6.344;2022-12-18T06:34:19;24.10;;;16.30;;
9374;SDS011;4727;51.202;6.344;2022-12-18T06:36:45;25.50;;;17.53;;
9374;SDS011;4727;51.202;6.344;2022-12-18T06:39:11;23.50;;;16.87;;
9374;SDS011;4727;51.202;6.344;2022-12-18T06:41:37;24.17;;;17.50;;
9374;SDS011;4727;51.202;6.344;2022-12-18T06:44:03;26.27;;;17.20;;
9374;SDS011;4727;51.202;6.344;2022-12-18T06:46:29;26.73;;;17.47;;
9374;SDS011;4727;51.202;6.344;2022-12-18T06:48:55;25.77;;;17.97;;
9374;SDS011;4727;51.202;6.344;2022-12-18T06:51:22;26.97;;;18.73;;
9374;SDS011;4727;51.202;6.344;2022-12-18T06:53:48;21.73;;;16.13;;
9374;SDS011;4727;51.202;6.344;2022-12-18T06:56:14;25.80;;;17.67;;
9374;SDS011;4727;51.202;6.344;2022-12-18T06:58:40;22.73;;;16.47;;
9374;SDS011;4727;51.202;6.344;2022-12-18T07:01:07;27.37;;;18.50;;
9374;SDS011;4727;51.202;6.344;2022-12-18T07:03:33;26.87;;;17.83;;
9374;SDS011;4727;51.202;6.344;2022-12-18T07:05:59;23.47;;;17.60;;
9374;SDS011;4727;51.202;6.344;2022-12-18T07:08:26;25.53;;;17.00;;
9374;SDS011;4727;51.202;6.344;2022-12-18T07:10:52;24.00;;;16.27;;
9374;SDS011;4727;51.202;6.344;2022-12-18T07:13:18;25.27;;;18.20;;
9374;SDS011;4727;51.202;6.344;2022-12-18T07:15:44;23.90;;;16.90;;
9374;SDS011;4727;51.202;6.344;2022-12-18T07:18:10;25.07;;;17.87;;
9374;SDS011;4727;51.202;6.344;2022-12-18T07:20:36;26.37;;;18.77;;
9374;SDS011;4727;51.202;6.344;2022-12-18T07:23:03;30.97;;;18.43;;
9374;SDS011;4727;51.202;6.344;2022-12-18T07:25:30;25.73;;;18.33;;
9374;SDS011;4727;51.202;6.344;2022-12-18T07:28:02;24.40;;;17.37;;
9374;SDS011;4727;51.202;6.344;2022-12-18T07:36:19;26.37;;;17.50;;
9374;SDS011;4727;51.202;6.344;2022-12-18T07:38:48;30.03;;;21.17;;
9374;SDS011;4727;51.202;6.344;2022-12-18T07:41:15;38.33;;;24.00;;
9374;SDS011;4727;51.202;6.344;2022-12-18T07:43:41;60.90;;;32.77;;
9374;SDS011;4727;51.202;6.344;2022-12-18T07:46:08;64.70;;;33.37;;
9374;SDS011;4727;51.202;6.344;2022-12-18T07:48:34;58.27;;;31.03;;
9374;SDS011;4727;51.202;6.344;2022-12-18T07:51:01;244.07;;;73.40;;
9374;SDS011;4727;51.202;6.344;2022-12-18T07:53:27;122.23;;;46.63;;
9374;SDS011;4727;51.202;6.344;2022-12-18T07:55:57;56.67;;;29.03;;
9374;SDS011;4727;51.202;6.344;2022-12-18T07:58:23;44.27;;;26.30;;
9374;SDS011;4727;51.202;6.344;2022-12-18T08:00:49;39.83;;;23.23;;
9374;SDS011;4727;51.202;6.344;2022-12-18T08:03:15;57.93;;;30.60;;
9374;SDS011;4727;51.202;6.344;2022-12-18T08:05:41;34.13;;;21.50;;
9374;SDS011;4727;51.202;6.344;2022-12-18T08:08:07;27.33;;;19.83;;
9374;SDS011;4727;51.202;6.344;2022-12-18T08:10:33;25.23;;;19.50;;
9374;SDS011;4727;51.202;6.344;2022-12-18T08:12:59;25.33;;;16.93;;
9374;SDS011;4727;51.202;6.344;2022-12-18T08:15:25;29.33;;;19.33;;
9374;SDS011;4727;51.202;6.344;2022-12-18T08:17:51;26.27;;;19.03;;
9374;SDS011;4727;51.202;6.344;2022-12-18T08:20:17;28.50;;;18.90;;
9374;SDS011;4727;51.202;6.344;2022-12-18T08:22:43;25.07;;;17.83;;
9374;SDS011;4727;51.202;6.344;2022-12-18T08:25:09;24.47;;;18.27;;
9374;SDS011;4727;51.202;6.344;2022-12-18T08:27:36;28.97;;;18.67;;
9374;SDS011;4727;51.202;6.344;2022-12-18T08:30:03;26.97;;;18.37;;
9374;SDS011;4727;51.202;6.344;2022-12-18T08:32:29;25.67;;;18.07;;
9374;SDS011;4727;51.202;6.344;2022-12-18T08:34:55;24.10;;;18.40;;
9374;SDS011;4727;51.202;6.344;2022-12-18T08:37:21;27.43;;;18.27;;
9374;SDS011;4727;51.202;6.344;2022-12-18T08:39:47;26.47;;;18.57;;
9374;SDS011;4727;51.202;6.344;2022-12-18T08:42:13;28.40;;;18.53;;
9374;SDS011;4727;51.202;6.344;2022-12-18T08:44:58;30.17;;;22.27;;
9374;SDS011;4727;51.202;6.344;2022-12-18T08:47:24;26.80;;;19.70;;
9374;SDS011;4727;51.202;6.344;2022-12-18T08:49:50;36.43;;;24.23;;
9374;SDS011;4727;51.202;6.344;2022-12-18T08:52:16;29.07;;;18.47;;
9374;SDS011;4727;51.202;6.344;2022-12-18T09:00:54;40.50;;;23.60;;
9374;SDS011;4727;51.202;6.344;2022-12-18T09:03:26;40.37;;;24.77;;
9374;SDS011;4727;51.202;6.344;2022-12-18T09:05:52;67.90;;;35.07;;
9374;SDS011;4727;51.202;6.344;2022-12-18T09:08:18;47.50;;;26.83;;
9374;SDS011;4727;51.202;6.344;2022-12-18T09:10:44;31.60;;;20.73;;
9374;SDS011;4727;51.202;6.344;2022-12-18T09:13:11;25.83;;;17.47;;
9374;SDS011;4727;51.202;6.344;2022-12-18T09:15:47;37.33;;;22.57;;
9374;SDS011;4727;51.202;6.344;2022-12-18T09:18:14;26.60;;;18.53;;
9374;SDS011;4727;51.202;6.344;2022-12-18T09:20:41;26.83;;;18.77;;
9374;SDS011;4727;51.202;6.344;2022-12-18T09:23:07;25.53;;;18.33;;
9374;SDS011;4727;51.202;6.344;2022-12-18T09:25:34;24.87;;;17.50;;
9374;SDS011;4727;51.202;6.344;2022-12-18T09:28:01;25.37;;;18.60;;
9374;SDS011;4727;51.202;6.344;2022-12-18T09:30:27;24.93;;;18.13;;
9374;SDS011;4727;51.202;6.344;2022-12-18T09:32:53;22.67;;;16.73;;
9374;SDS011;4727;51.202;6.344;2022-12-18T09:35:19;23.43;;;18.10;;
9374;SDS011;4727;51.202;6.344;2022-12-18T09:37:45;26.10;;;18.13;;
9374;SDS011;4727;51.202;6.344;2022-12-18T09:40:14;25.40;;;17.40;;
9374;SDS011;4727;51.202;6.344;2022-12-18T09:42:42;42.60;;;27.20;;
9374;SDS011;4727;51.202;6.344;2022-12-18T09:45:12;47.10;;;29.10;;
9374;SDS011;4727;51.202;6.344;2022-12-18T09:47:39;39.50;;;25.50;;
9374;SDS011;4727;51.202;6.344;2022-12-18T09:50:26;35.97;;;24.50;;
9374;SDS011;4727;51.202;6.344;2022-12-18T09:52:56;35.83;;;24.03;;
9374;SDS011;4727;51.202;6.344;2022-12-18T09:55:30;42.80;;;26.37;;
9374;SDS011;4727;51.202;6.344;2022-12-18T09:58:02;35.73;;;23.23;;
9374;SDS011;4727;51.202;6.344;2022-12-18T10:00:30;25.07;;;18.40;;
9374;SDS011;4727;51.202;6.344;2022-12-18T10:02:59;33.47;;;22.23;;
9374;SDS011;4727;51.202;6.344;2022-12-18T10:07:53;30.77;;;22.37;;
9374;SDS011;4727;51.202;6.344;2022-12-18T10:10:23;29.10;;;20.53;;
9374;SDS011;4727;51.202;6.344;2022-12-18T10:12:58;29.77;;;19.27;;
9374;SDS011;4727;51.202;6.344;2022-12-18T10:18:05;23.83;;;17.90;;
9374;SDS011;4727;51.202;6.344;2022-12-18T10:20:34;23.00;;;17.23;;
9374;SDS011;4727;51.202;6.344;2022-12-18T10:29:12;25.13;;;17.23;;
9374;SDS011;4727;51.202;6.344;2022-12-18T10:31:38;23.83;;;17.20;;
9374;SDS011;4727;51.202;6.344;2022-12-18T10:34:07;23.33;;;18.23;;
9374;SDS011;4727;51.202;6.344;2022-12-18T10:36:34;34.30;;;23.50;;
9374;SDS011;4727;51.202;6.344;2022-12-18T10:39:13;42.00;;;25.63;;
9374;SDS011;4727;51.202;6.344;2022-12-18T10:41:40;30.73;;;19.67;;
9374;SDS011;4727;51.202;6.344;2022-12-18T10:44:21;117.23;;;54.70;;
9374;SDS011;4727;51.202;6.344;2022-12-18T10:46:48;57.47;;;32.70;;
9374;SDS011;4727;51.202;6.344;2022-12-18T10:49:22;49.90;;;28.53;;
9374;SDS011;4727;51.202;6.344;2022-12-18T10:51:48;90.90;;;41.03;;
9374;SDS011;4727;51.202;6.344;2022-12-18T10:54:16;89.33;;;40.87;;
9374;SDS011;4727;51.202;6.344;2022-12-18T10:56:42;40.90;;;25.17;;
9374;SDS011;4727;51.202;6.344;2022-12-18T10:59:09;32.00;;;21.83;;
9374;SDS011;4727;51.202;6.344;2022-12-18T11:04:32;37.60;;;26.17;;
9374;SDS011;4727;51.202;6.344;2022-12-18T11:07:01;25.00;;;18.70;;
9374;SDS011;4727;51.202;6.344;2022-12-18T11:09:28;25.70;;;18.87;;
9374;SDS011;4727;51.202;6.344;2022-12-18T11:11:57;23.10;;;17.57;;
9374;SDS011;4727;51.202;6.344;2022-12-18T11:14:25;24.20;;;17.37;;
9374;SDS011;4727;51.202;6.344;2022-12-18T11:16:52;24.17;;;17.00;;
9374;SDS011;4727;51.202;6.344;2022-12-18T11:21:50;22.67;;;17.27;;
9374;SDS011;4727;51.202;6.344;2022-12-18T11:24:29;22.53;;;17.00;;
9374;SDS011;4727;51.202;6.344;2022-12-18T11:26:57;24.33;;;16.90;;
9374;SDS011;4727;51.202;6.344;2022-12-18T11:29:31;24.63;;;18.00;;
9374;SDS011;4727;51.202;6.344;2022-12-18T11:34:44;24.17;;;17.93;;
9374;SDS011;4727;51.202;6.344;2022-12-18T11:37:12;24.87;;;18.40;;
9374;SDS011;4727;51.202;6.344;2022-12-18T11:39:44;23.73;;;18.17;;
9374;SDS011;4727;51.202;6.344;2022-12-18T11:42:12;27.70;;;19.20;;
9374;SDS011;4727;51.202;6.344;2022-12-18T11:44:46;39.10;;;24.03;;
9374;SDS011;4727;51.202;6.344;2022-12-18T11:50:00;85.97;;;41.67;;
9374;SDS011;4727;51.202;6.344;2022-12-18T11:52:27;78.63;;;41.60;;
9374;SDS011;4727;51.202;6.344;2022-12-18T11:54:58;67.07;;;36.17;;
9374;SDS011;4727;51.202;6.344;2022-12-18T11:59:54;151.87;;;61.27;;
9374;SDS011;4727;51.202;6.344;2022-12-18T12:10:10;144.97;;;54.47;;
9374;SDS011;4727;51.202;6.344;2022-12-18T12:15:25;238.10;;;71.27;;
9374;SDS011;4727;51.202;6.344;2022-12-18T12:20:39;119.73;;;47.67;;
9374;SDS011;4727;51.202;6.344;2022-12-18T12:25:41;88.00;;;43.53;;
9374;SDS011;4727;51.202;6.344;2022-12-18T12:33:29;31.13;;;21.10;;
9374;SDS011;4727;51.202;6.344;2022-12-18T12:41:21;25.03;;;19.67;;
9374;SDS011;4727;51.202;6.344;2022-12-18T12:44:07;26.23;;;18.90;;
9374;SDS011;4727;51.202;6.344;2022-12-18T12:46:36;24.90;;;17.50;;
9374;SDS011;4727;51.202;6.344;2022-12-18T12:49:04;26.40;;;19.43;;
9374;SDS011;4727;51.202;6.344;2022-12-18T12:51:35;23.47;;;16.90;;
9374;SDS011;4727;51.202;6.344;2022-12-18T12:54:05;22.70;;;16.50;;
9374;SDS011;4727;51.202;6.344;2022-12-18T12:56:36;23.27;;;17.27;;
9374;SDS011;4727;51.202;6.344;2022-12-18T13:02:03;27.30;;;18.10;;
9374;SDS011;4727;51.202;6.344;2022-12-18T13:04:37;23.07;;;17.37;;
9374;SDS011;4727;51.202;6.344;2022-12-18T13:07:06;22.47;;;17.30;;
9374;SDS011;4727;51.202;6.344;2022-12-18T13:09:36;23.00;;;16.80;;
9374;SDS011;4727;51.202;6.344;2022-12-18T13:12:22;23.17;;;17.37;;
9374;SDS011;4727;51.202;6.344;2022-12-18T13:15:16;22.77;;;16.67;;
9374;SDS011;4727;51.202;6.344;2022-12-18T13:17:46;22.23;;;17.43;;
9374;SDS011;4727;51.202;6.344;2022-12-18T13:20:12;22.27;;;17.20;;
9374;SDS011;4727;51.202;6.344;2022-12-18T13:28:03;23.50;;;18.33;;
9374;SDS011;4727;51.202;6.344;2022-12-18T13:45:48;23.57;;;17.17;;
9374;SDS011;4727;51.202;6.344;2022-12-18T13:48:19;20.97;;;16.03;;
9374;SDS011;4727;51.202;6.344;2022-12-18T13:50:51;25.40;;;18.90;;
9374;SDS011;4727;51.202;6.344;2022-12-18T13:53:20;26.00;;;17.93;;
9374;SDS011;4727;51.202;6.344;2022-12-18T13:55:47;26.07;;;18.70;;
9374;SDS011;4727;51.202;6.344;2022-12-18T13:58:14;28.47;;;19.17;;
9374;SDS011;4727;51.202;6.344;2022-12-18T14:00:41;27.03;;;18.20;;
9374;SDS011;4727;51.202;6.344;2022-12-18T14:03:21;26.77;;;18.90;;
9374;SDS011;4727;51.202;6.344;2022-12-18T14:05:52;28.87;;;20.63;;
9374;SDS011;4727;51.202;6.344;2022-12-18T14:08:18;26.27;;;18.37;;
9374;SDS011;4727;51.202;6.344;2022-12-18T14:10:45;29.13;;;19.53;;
9374;SDS011;4727;51.202;6.344;2022-12-18T14:13:23;26.83;;;19.43;;
9374;SDS011;4727;51.202;6.344;2022-12-18T14:15:50;28.23;;;18.63;;
9374;SDS011;4727;51.202;6.344;2022-12-18T14:20:49;25.90;;;18.97;;
9374;SDS011;4727;51.202;6.344;2022-12-18T14:25:53;28.43;;;19.87;;
9374;SDS011;4727;51.202;6.344;2022-12-18T14:28:19;27.57;;;20.40;;
9374;SDS011;4727;51.202;6.344;2022-12-18T14:30:48;28.07;;;20.03;;
9374;SDS011;4727;51.202;6.344;2022-12-18T14:33:16;25.00;;;18.60;;
9374;SDS011;4727;51.202;6.344;2022-12-18T14:35:53;25.10;;;18.90;;
9374;SDS011;4727;51.202;6.344;2022-12-18T14:41:04;28.57;;;19.33;;
9374;SDS011;4727;51.202;6.344;2022-12-18T14:43:33;24.97;;;19.10;;
9374;SDS011;4727;51.202;6.344;2022-12-18T14:46:00;25.80;;;20.37;;
9374;SDS011;4727;51.202;6.344;2022-12-18T14:48:39;28.37;;;21.43;;
9374;SDS011;4727;51.202;6.344;2022-12-18T14:51:21;29.13;;;20.20;;
9374;SDS011;4727;51.202;6.344;2022-12-18T14:53:57;26.87;;;19.60;;
9374;SDS011;4727;51.202;6.344;2022-12-18T14:59:30;28.70;;;20.17;;
9374;SDS011;4727;51.202;6.344;2022-12-18T15:06:48;26.57;;;20.57;;
9374;SDS011;4727;51.202;6.344;2022-12-18T15:09:27;31.37;;;22.10;;
9374;SDS011;4727;51.202;6.344;2022-12-18T15:11:57;28.70;;;20.80;;
9374;SDS011;4727;51.202;6.344;2022-12-18T15:16:56;28.13;;;19.73;;
9374;SDS011;4727;51.202;6.344;2022-12-18T15:19:25;25.00;;;20.53;;
9374;SDS011;4727;51.202;6.344;2022-12-18T15:21:56;27.60;;;20.83;;
9374;SDS011;4727;51.202;6.344;2022-12-18T15:24:24;29.43;;;21.57;;
9374;SDS011;4727;51.202;6.344;2022-12-18T15:26:52;28.00;;;21.27;;
9374;SDS011;4727;51.202;6.344;2022-12-18T15:29:19;28.60;;;21.80;;
9374;SDS011;4727;51.202;6.344;2022-12-18T15:32:03;30.47;;;21.07;;
9374;SDS011;4727;51.202;6.344;2022-12-18T15:34:30;29.07;;;21.00;;
9374;SDS011;4727;51.202;6.344;2022-12-18T15:36:56;27.43;;;20.93;;
9374;SDS011;4727;51.202;6.344;2022-12-18T15:39:22;30.63;;;22.10;;
9374;SDS011;4727;51.202;6.344;2022-12-18T15:41:48;28.57;;;20.77;;
9374;SDS011;4727;51.202;6.344;2022-12-18T15:44:33;27.53;;;20.73;;
9374;SDS011;4727;51.202;6.344;2022-12-18T15:46:59;30.73;;;22.30;;
9374;SDS011;4727;51.202;6.344;2022-12-18T15:49:25;31.23;;;25.13;;
9374;SDS011;4727;51.202;6.344;2022-12-18T15:51:52;34.83;;;25.37;;
9374;SDS011;4727;51.202;6.344;2022-12-18T15:54:19;31.43;;;24.60;;
9374;SDS011;4727;51.202;6.344;2022-12-18T15:57:08;42.37;;;30.33;;
9374;SDS011;4727;51.202;6.344;2022-12-18T15:59:53;28.13;;;21.80;;
9374;SDS011;4727;51.202;6.344;2022-12-18T16:02:21;31.37;;;22.83;;
9374;SDS011;4727;51.202;6.344;2022-12-18T16:04:48;31.60;;;21.90;;
9374;SDS011;4727;51.202;6.344;2022-12-18T16:07:14;26.97;;;20.13;;
9374;SDS011;4727;51.202;6.344;2022-12-18T16:09:40;28.87;;;21.80;;
9374;SDS011;4727;51.202;6.344;2022-12-18T16:12:08;31.27;;;22.33;;
9374;SDS011;4727;51.202;6.344;2022-12-18T16:14:39;52.30;;;35.27;;
9374;SDS011;4727;51.202;6.344;2022-12-18T16:17:06;29.47;;;21.47;;
9374;SDS011;4727;51.202;6.344;2022-12-18T16:19:37;30.80;;;21.33;;
9374;SDS011;4727;51.202;6.344;2022-12-18T16:22:03;31.37;;;21.70;;
9374;SDS011;4727;51.202;6.344;2022-12-18T16:24:31;30.27;;;21.67;;
9374;SDS011;4727;51.202;6.344;2022-12-18T16:26:58;32.33;;;22.33;;
9374;SDS011;4727;51.202;6.344;2022-12-18T16:29:24;31.97;;;21.93;;
9374;SDS011;4727;51.202;6.344;2022-12-18T16:31:55;32.50;;;23.03;;
9374;SDS011;4727;51.202;6.344;2022-12-18T16:34:23;33.27;;;21.57;;
9374;SDS011;4727;51.202;6.344;2022-12-18T16:37:26;30.10;;;21.07;;
9374;SDS011;4727;51.202;6.344;2022-12-18T16:39:45;31.70;;;22.23;;
9374;SDS011;4727;51.202;6.344;2022-12-18T16:42:15;32.40;;;21.97;;
9374;SDS011;4727;51.202;6.344;2022-12-18T16:44:44;30.53;;;21.73;;
9374;SDS011;4727;51.202;6.344;2022-12-18T16:47:10;29.60;;;19.60;;
9374;SDS011;4727;51.202;6.344;2022-12-18T16:49:36;32.13;;;24.33;;
9374;SDS011;4727;51.202;6.344;2022-12-18T16:52:03;29.63;;;21.57;;
9374;SDS011;4727;51.202;6.344;2022-12-18T16:54:29;26.90;;;20.10;;
9374;SDS011;4727;51.202;6.344;2022-12-18T16:56:55;28.53;;;20.43;;
9374;SDS011;4727;51.202;6.344;2022-12-18T16:59:21;28.37;;;21.53;;
9374;SDS011;4727;51.202;6.344;2022-12-18T17:01:47;29.87;;;21.70;;
9374;SDS011;4727;51.202;6.344;2022-12-18T17:04:13;30.47;;;21.50;;
9374;SDS011;4727;51.202;6.344;2022-12-18T17:06:40;29.90;;;21.43;;
9374;SDS011;4727;51.202;6.344;2022-12-18T17:09:09;31.10;;;20.00;;